Time;durP1;ratioP1;P1;durP2;ratioP2;P2;SDS_P1;SDS_P2;PMS_P1;PMS_P2;Temp;Humidity;BMP_temperature;BMP_pressure;BME280_temperature;BME280_humidity;BME280_pressure;Samples;Min_cycle;Max_cycle;Signal;HPM_P1;HPM_P2
2021/05/12 00:01:30;;;;;;;17.23;13.65;;;;;;;15.21;55.27;100712.19;5091112;28;20456;-56
2021/05/12 00:03:56;;;;;;;16.33;12.50;;;;;;;15.50;55.03;100763.59;5090821;28;20165;-57
2021/05/12 00:06:21;;;;;;;17.92;12.45;;;;;;;15.49;55.34;100783.50;5091216;28;20032;-56
2021/05/12 00:08:47;;;;;;;22.67;13.85;;;;;;;15.41;55.43;100756.31;5091090;28;20109;-55
2021/05/12 00:11:12;;;;;;;19.88;13.82;;;;;;;15.53;55.45;100767.91;5090812;28;20028;-56
2021/05/12 00:13:38;;;;;;;24.27;14.02;;;;;;;15.09;55.73;100694.34;5091152;28;20049;-57
2021/05/12 00:16:04;;;;;;;19.70;13.63;;;;;;;15.01;55.90;100695.00;5090861;28;20024;-57
2021/05/12 00:18:36;;;;;;;21.45;14.65;;;;;;;15.25;55.99;100732.50;5090937;28;20144;-55
2021/05/12 00:21:04;;;;;;;20.33;13.73;;;;;;;15.55;56.27;100786.63;5089494;28;20028;-58
2021/05/12 00:23:41;;;;;;;21.35;13.65;;;;;;;15.16;56.44;100739.53;5091153;28;20123;-56
2021/05/12 00:26:06;;;;;;;23.05;14.07;;;;;;;15.48;56.25;100779.06;5090666;28;20123;-57
2021/05/12 00:28:32;;;;;;;21.90;13.88;;;;;;;15.47;56.54;100779.22;5090884;28;20529;-58
2021/05/12 00:30:57;;;;;;;19.25;13.90;;;;;;;15.39;56.66;100769.09;5090619;28;20032;-59
2021/05/12 00:33:23;;;;;;;17.23;13.50;;;;;;;15.04;56.64;100725.28;5090997;28;20247;-55
2021/05/12 00:35:48;;;;;;;16.38;13.13;;;;;;;15.31;56.81;100772.44;5090503;28;20412;-59
2021/05/12 00:38:14;;;;;;;20.73;13.02;;;;;;;15.19;57.08;100744.66;5090492;28;20101;-55
2021/05/12 00:40:39;;;;;;;19.30;14.15;;;;;;;15.36;57.27;100763.97;5090020;28;20047;-57
2021/05/12 00:43:05;;;;;;;16.75;13.32;;;;;;;15.36;57.21;100777.44;5090608;28;20024;-58
2021/05/12 00:45:30;;;;;;;17.05;12.27;;;;;;;15.08;57.25;100728.56;5090462;28;20375;-58
2021/05/12 00:47:56;;;;;;;15.65;12.65;;;;;;;15.29;57.25;100778.94;5090844;28;20055;-58
2021/05/12 00:50:23;;;;;;;17.73;13.02;;;;;;;15.34;57.55;100784.81;5089425;28;20032;-59
2021/05/12 00:52:49;;;;;;;18.08;12.88;;;;;;;15.23;57.50;100771.38;5090890;28;20111;-56
2021/05/12 00:55:15;;;;;;;18.30;11.85;;;;;;;14.68;57.49;100695.00;5090603;28;20028;-53
2021/05/12 00:57:41;;;;;;;16.23;11.35;;;;;;;15.26;57.61;100776.50;5090556;28;20040;-57
2021/05/12 01:00:09;;;;;;;20.48;12.65;;;;;;;15.28;58.11;100775.41;5090567;28;20032;-53
2021/05/12 01:02:35;;;;;;;19.45;11.52;;;;;;;15.29;57.72;100773.53;5090251;28;20031;-55
2021/05/12 01:05:02;;;;;;;17.00;12.25;;;;;;;15.23;58.12;100771.38;5090050;28;20504;-57
2021/05/12 01:07:28;;;;;;;16.98;12.27;;;;;;;15.17;58.40;100776.31;5090441;28;20401;-54
2021/05/12 01:09:53;;;;;;;15.35;12.02;;;;;;;15.23;58.26;100772.25;5090240;28;20036;-57
2021/05/12 01:12:19;;;;;;;19.08;12.65;;;;;;;15.11;58.36;100760.66;5090280;28;20035;-53
2021/05/12 01:14:45;;;;;;;15.25;12.20;;;;;;;15.15;58.59;100762.13;5090467;28;20070;-57
2021/05/12 01:17:11;;;;;;;19.23;11.98;;;;;;;15.12;58.48;100764.22;5090396;28;20496;-53
2021/05/12 01:19:38;;;;;;;19.10;12.63;;;;;;;14.99;58.79;100754.47;5090057;28;20477;-58
2021/05/12 01:22:04;;;;;;;20.50;13.68;;;;;;;15.03;59.05;100772.09;5090192;28;20119;-57
2021/05/12 01:24:29;;;;;;;18.15;12.98;;;;;;;15.01;59.00;100779.47;5090487;28;20127;-60
2021/05/12 01:26:55;;;;;;;18.63;13.68;;;;;;;14.99;59.22;100785.97;5090538;28;20028;-54
2021/05/12 01:29:20;;;;;;;20.50;13.45;;;;;;;14.98;59.42;100787.81;5089905;28;20057;-56
2021/05/12 01:31:46;;;;;;;25.15;13.35;;;;;;;14.81;59.32;100767.63;5089814;28;20036;-56
2021/05/12 01:34:17;;;;;;;22.02;12.93;;;;;;;14.95;60.16;100796.16;5089744;28;20028;-56
2021/05/12 01:36:45;;;;;;;22.92;14.13;;;;;;;14.97;59.66;100791.50;5090143;28;20171;-59
2021/05/12 01:39:12;;;;;;;19.08;14.15;;;;;;;14.95;59.67;100795.31;5071644;28;20040;-57
2021/05/12 01:41:37;;;;;;;19.60;13.45;;;;;;;14.91;59.65;100792.00;5089746;28;20052;-53
2021/05/12 01:44:09;;;;;;;20.00;12.43;;;;;;;14.47;59.68;100717.41;5089399;28;20121;-59
2021/05/12 01:46:37;;;;;;;20.67;12.63;;;;;;;14.57;59.99;100757.03;5089453;28;20043;-60
2021/05/12 01:49:03;;;;;;;18.15;13.75;;;;;;;14.81;59.77;100791.06;5089724;28;20561;-57
2021/05/12 01:51:32;;;;;;;19.60;13.13;;;;;;;14.91;59.75;100805.47;5091739;28;20055;-55
2021/05/12 01:53:58;;;;;;;18.85;12.63;;;;;;;14.76;59.63;100778.84;5094040;28;20520;-59
2021/05/12 01:56:23;;;;;;;17.67;12.48;;;;;;;14.86;59.42;100788.84;5093287;28;20142;-60
2021/05/12 01:58:49;;;;;;;18.55;12.27;;;;;;;14.86;59.77;100803.19;5093245;28;20040;-58
2021/05/12 02:01:14;;;;;;;17.50;12.70;;;;;;;14.88;59.56;100794.94;5093404;28;20032;-55
2021/05/12 02:03:40;;;;;;;19.25;12.88;;;;;;;14.91;59.48;100789.28;5093354;28;20043;-59
2021/05/12 02:06:05;;;;;;;19.00;12.82;;;;;;;14.87;59.53;100785.16;5092943;28;20024;-53
2021/05/12 02:08:31;;;;;;;24.27;12.98;;;;;;;14.87;59.50;100799.50;5093277;28;20050;-56
2021/05/12 02:11:02;;;;;;;23.50;13.75;;;;;;;14.98;59.86;100808.53;5093058;28;20105;-52
2021/05/12 02:13:32;;;;;;;18.63;12.80;;;;;;;14.96;59.08;100813.19;5093633;28;20032;-57
2021/05/12 02:16:03;;;;;;;20.80;13.70;;;;;;;15.01;59.60;100816.34;5093160;28;20401;-52
2021/05/12 02:18:29;;;;;;;18.88;12.55;;;;;;;14.93;59.09;100790.91;5092189;28;20085;-52
2021/05/12 02:20:55;;;;;;;22.40;12.43;;;;;;;15.04;59.00;100805.31;5092697;28;20028;-56
2021/05/12 02:23:22;;;;;;;18.95;11.68;;;;;;;15.02;58.90;100791.97;5092975;28;20448;-53
2021/05/12 02:25:48;;;;;;;17.83;11.05;;;;;;;15.14;58.59;100803.56;5093032;28;20032;-53
2021/05/12 02:28:13;;;;;;;14.18;10.30;;;;;;;15.21;58.31;100790.41;5092622;28;20032;-59
2021/05/12 02:30:40;;;;;;;14.50;9.93;;;;;;;15.24;57.96;100795.53;5092713;28;20040;-54
2021/05/12 02:33:06;;;;;;;13.68;9.48;;;;;;;14.97;57.64;100745.66;5092768;28;20485;-53
2021/05/12 02:35:32;;;;;;;15.43;9.02;;;;;;;15.36;57.16;100794.47;5093121;28;20024;-55
2021/05/12 02:37:58;;;;;;;13.48;8.60;;;;;;;15.49;57.05;100801.53;5092352;28;20095;-57
2021/05/12 02:40:24;;;;;;;13.05;7.88;;;;;;;15.52;56.60;100798.56;5092822;28;20469;-59
2021/05/12 02:42:51;;;;;;;10.80;7.85;;;;;;;15.61;56.16;100800.47;5092609;28;20041;-60
2021/05/12 02:45:18;;;;;;;11.52;7.55;;;;;;;15.65;55.91;100799.19;5092660;28;20039;-58
2021/05/12 02:47:57;;;;;;;10.95;8.07;;;;;;;15.60;55.46;100773.63;5092143;28;20493;-57
2021/05/12 02:50:27;;;;;;;13.52;8.02;;;;;;;15.82;55.28;100787.94;5092343;28;20032;-53
2021/05/12 02:52:52;;;;;;;10.35;7.50;;;;;;;15.85;55.08;100772.31;5092264;28;20396;-58
2021/05/12 02:55:19;;;;;;;10.00;7.63;;;;;;;15.76;55.12;100748.84;5090880;28;20600;-58
2021/05/12 02:57:45;;;;;;;14.02;7.82;;;;;;;16.10;54.70;100805.28;5089163;28;20170;-57
2021/05/12 03:00:12;;;;;;;14.57;7.85;;;;;;;16.16;54.57;100793.97;5090390;28;20111;-54
2021/05/12 03:02:37;;;;;;;10.10;7.07;;;;;;;16.24;54.08;100795.94;5090141;28;20020;-57
2021/05/12 03:05:04;;;;;;;9.93;7.13;;;;;;;16.28;53.92;100793.84;5090777;28;20070;-57
2021/05/12 03:07:29;;;;;;;9.10;6.93;;;;;;;16.31;53.35;100783.63;5071788;28;20440;-51
2021/05/12 03:09:55;;;;;;;9.85;6.50;;;;;;;16.42;53.31;100790.75;5090628;28;20397;-54
2021/05/12 03:12:20;;;;;;;9.18;7.15;;;;;;;16.52;53.09;100807.00;5091691;28;20481;-53
2021/05/12 03:14:46;;;;;;;12.82;7.50;;;;;;;16.64;52.60;100796.94;5091001;28;20473;-56
2021/05/12 03:17:11;;;;;;;12.27;7.40;;;;;;;16.74;52.49;100808.59;5091608;28;20036;-59
2021/05/12 03:19:36;;;;;;;11.82;8.15;;;;;;;16.45;52.22;100752.66;5091703;28;20485;-58
2021/05/12 03:22:02;;;;;;;11.68;7.82;;;;;;;16.72;52.00;100778.16;5092120;28;20036;-60
2021/05/12 03:24:27;;;;;;;12.18;8.27;;;;;;;17.05;51.45;100822.03;5091657;28;20040;-56
2021/05/12 03:26:53;;;;;;;11.88;8.23;;;;;;;17.15;51.54;100813.91;5091262;28;20362;-60
2021/05/12 03:29:18;;;;;;;13.68;8.52;;;;;;;17.16;51.19;100796.69;5091342;28;20478;-59
2021/05/12 03:31:44;;;;;;;14.68;8.50;;;;;;;17.29;51.00;100809.09;5091444;28;20058;-58
2021/05/12 03:34:10;;;;;;;13.63;7.70;;;;;;;17.31;50.63;100788.16;5091334;28;20039;-57
2021/05/12 03:36:35;;;;;;;12.68;7.82;;;;;;;17.52;50.30;100798.78;5091582;28;20028;-59
2021/05/12 03:39:03;;;;;;;13.02;7.53;;;;;;;17.63;50.13;100806.75;5091175;28;20055;-58
2021/05/12 03:41:29;;;;;;;10.77;7.13;;;;;;;17.71;49.99;100816.00;5090146;28;20528;-58
2021/05/12 03:43:54;;;;;;;9.40;6.85;;;;;;;17.60;49.62;100784.53;5091202;28;20028;-57
2021/05/12 03:46:20;;;;;;;11.50;7.22;;;;;;;17.68;49.73;100803.59;5091193;28;20541;-57
2021/05/12 03:48:45;;;;;;;14.20;7.93;;;;;;;17.70;49.71;100806.16;5090989;28;20047;-55
2021/05/12 03:51:11;;;;;;;11.00;7.05;;;;;;;17.69;49.72;100820.72;5091147;28;20039;-55
2021/05/12 03:53:37;;;;;;;11.90;7.03;;;;;;;17.67;49.62;100820.00;5091602;28;20036;-56
2021/05/12 03:56:03;;;;;;;11.38;7.13;;;;;;;17.56;49.78;100816.44;5091066;28;20036;-54
2021/05/12 03:58:28;;;;;;;12.60;7.90;;;;;;;17.34;50.16;100801.38;5091027;28;20036;-57
2021/05/12 04:00:54;;;;;;;11.18;7.57;;;;;;;17.23;50.30;100794.28;5090716;28;20077;-50
2021/05/12 04:03:19;;;;;;;16.65;8.68;;;;;;;17.21;50.53;100813.34;5090818;28;20050;-53
2021/05/12 04:05:45;;;;;;;19.60;9.00;;;;;;;17.20;50.79;100808.09;5090579;28;20024;-58
2021/05/12 04:08:10;;;;;;;16.63;9.10;;;;;;;17.23;50.84;100821.34;5090681;28;20500;-53
2021/05/12 04:10:36;;;;;;;12.13;8.63;;;;;;;17.20;50.81;100825.16;5091414;28;20194;-54
2021/05/12 04:13:01;;;;;;;14.68;8.55;;;;;;;17.17;50.86;100819.22;5090721;28;20562;-55
2021/05/12 04:15:27;;;;;;;13.93;9.43;;;;;;;17.19;50.85;100814.50;5090146;28;20119;-54
2021/05/12 04:17:53;;;;;;;15.35;8.98;;;;;;;17.11;50.91;100796.28;5090901;28;20040;-53
2021/05/12 04:20:20;;;;;;;17.50;8.73;;;;;;;17.17;51.09;100816.50;5090853;28;20035;-51
2021/05/12 04:22:46;;;;;;;13.90;8.82;;;;;;;17.02;51.11;100787.16;5090772;28;20032;-58
2021/05/12 04:25:23;;;;;;;16.67;8.95;;;;;;;17.14;51.33;100805.97;5090315;28;20028;-55
2021/05/12 04:27:49;;;;;;;14.00;8.88;;;;;;;17.06;51.18;100817.50;5090597;28;20082;-54
2021/05/12 04:30:17;;;;;;;11.43;8.60;;;;;;;16.98;51.20;100806.47;5090532;28;20435;-51
2021/05/12 04:32:44;;;;;;;13.05;8.80;;;;;;;16.99;51.46;100819.91;5090474;28;20492;-52
2021/05/12 04:35:17;;;;;;;12.68;7.70;;;;;;;17.01;50.97;100817.06;5090497;28;20059;-50
2021/05/12 04:37:43;;;;;;;14.43;6.93;;;;;;;16.97;50.75;100821.88;5090871;28;20102;-59
2021/05/12 04:40:09;;;;;;;10.98;6.55;;;;;;;16.95;50.41;100818.44;5090855;28;20044;-61
2021/05/12 04:42:35;;;;;;;9.63;6.57;;;;;;;16.90;50.15;100804.50;5090463;28;20052;-58
2021/05/12 04:45:03;;;;;;;9.55;5.68;;;;;;;16.93;50.12;100799.66;5090383;28;20085;-61
2021/05/12 04:47:28;;;;;;;12.40;7.05;;;;;;;16.90;49.94;100801.81;5090525;28;20039;-54
2021/05/12 04:49:54;;;;;;;11.90;5.90;;;;;;;16.95;49.87;100804.94;5090603;28;20036;-57
2021/05/12 04:52:19;;;;;;;10.85;6.30;;;;;;;16.94;50.02;100811.34;5090257;28;20027;-55
2021/05/12 04:54:45;;;;;;;9.07;6.00;;;;;;;16.90;49.99;100804.50;5090249;28;20492;-52
2021/05/12 04:57:10;;;;;;;10.93;6.75;;;;;;;16.90;50.15;100810.75;5089250;28;20034;-56
2021/05/12 04:59:35;;;;;;;9.40;6.22;;;;;;;16.88;49.96;100795.66;5090386;28;20096;-54
2021/05/12 05:02:03;;;;;;;12.70;7.18;;;;;;;17.03;49.78;100821.31;5089842;28;20067;-56
2021/05/12 05:04:28;;;;;;;13.43;7.10;;;;;;;17.07;49.57;100806.50;5090231;28;20028;-55
2021/05/12 05:06:54;;;;;;;15.30;7.07;;;;;;;17.14;49.60;100808.66;5090371;28;20034;-52
2021/05/12 05:09:19;;;;;;;14.35;7.38;;;;;;;17.21;49.48;100816.03;5090689;28;20480;-52
2021/05/12 05:11:45;;;;;;;8.07;6.68;;;;;;;17.31;49.48;100805.22;5090055;28;20031;-52
2021/05/12 05:14:12;;;;;;;11.32;7.70;;;;;;;17.42;49.40;100814.19;5090020;28;20043;-52
2021/05/12 05:16:37;;;;;;;11.88;7.35;;;;;;;17.10;49.48;100742.28;5090486;28;20516;-59
2021/05/12 05:19:03;;;;;;;17.15;8.48;;;;;;;17.55;49.27;100806.59;5090182;28;20119;-54
2021/05/12 05:21:28;;;;;;;17.05;8.50;;;;;;;17.50;49.38;100781.84;5089956;28;20472;-56
2021/05/12 05:23:54;;;;;;;14.10;7.72;;;;;;;17.53;48.99;100757.16;5089828;28;20032;-52
2021/05/12 05:26:20;;;;;;;14.55;8.85;;;;;;;17.91;48.78;100803.22;5091330;28;20027;-60
2021/05/12 05:28:45;;;;;;;15.23;9.13;;;;;;;18.00;48.63;100796.06;5093773;28;20039;-56
2021/05/12 05:31:11;;;;;;;15.45;9.07;;;;;;;17.84;48.58;100758.78;5093414;28;20038;-53
2021/05/12 05:33:36;;;;;;;17.15;9.18;;;;;;;18.15;48.27;100799.19;5093342;28;20032;-56
2021/05/12 05:36:02;;;;;;;13.73;8.77;;;;;;;18.18;48.58;100816.00;5093534;28;20028;-58
2021/05/12 05:38:28;;;;;;;15.05;10.25;;;;;;;18.09;48.69;100797.94;5093716;28;20052;-53
2021/05/12 05:40:53;;;;;;;18.60;10.52;;;;;;;17.95;48.66;100791.09;5091744;28;20040;-58
2021/05/12 05:43:19;;;;;;;15.70;10.20;;;;;;;18.00;48.84;100796.94;5093572;28;20123;-56
2021/05/12 05:45:44;;;;;;;18.77;11.15;;;;;;;18.01;48.92;100781.53;5093683;28;20531;-63
2021/05/12 05:48:11;;;;;;;17.80;12.05;;;;;;;18.06;48.63;100777.41;5093317;28;20028;-51
2021/05/12 05:50:37;;;;;;;19.10;11.30;;;;;;;18.03;48.97;100780.41;5093321;28;20036;-56
2021/05/12 05:53:03;;;;;;;15.98;11.15;;;;;;;18.01;49.18;100759.84;5093284;28;20105;-54
2021/05/12 05:55:28;;;;;;;17.30;11.80;;;;;;;17.75;49.06;100723.47;5093055;28;20548;-55
2021/05/12 05:57:54;;;;;;;22.15;12.23;;;;;;;17.88;49.41;100757.47;5093455;28;20036;-55
2021/05/12 06:00:21;;;;;;;22.98;12.48;;;;;;;17.86;49.77;100776.63;5091805;28;20032;-54
2021/05/12 06:02:46;;;;;;;17.60;12.43;;;;;;;17.77;49.75;100769.34;5092737;28;20048;-52
2021/05/12 06:05:12;;;;;;;22.23;13.25;;;;;;;17.69;50.34;100780.09;5093479;28;20038;-54
2021/05/12 06:07:38;;;;;;;19.27;12.10;;;;;;;17.12;50.34;100695.16;5092329;28;20040;-58
2021/05/12 06:10:05;;;;;;;19.27;12.68;;;;;;;17.56;50.44;100788.53;5089448;28;20035;-59
2021/05/12 06:12:31;;;;;;;20.92;12.18;;;;;;;17.34;50.45;100750.78;5090319;28;20083;-57
2021/05/12 06:14:57;;;;;;;19.50;12.60;;;;;;;17.47;50.73;100776.72;5091206;28;20518;-62
2021/05/12 06:17:22;;;;;;;17.80;12.43;;;;;;;17.42;50.93;100779.00;5090802;28;20043;-51
2021/05/12 06:19:48;;;;;;;22.20;12.82;;;;;;;17.38;51.15;100780.31;5090463;28;20069;-52
2021/05/12 06:22:15;;;;;;;22.90;12.98;;;;;;;17.22;51.25;100765.50;5092758;28;20032;-57
2021/05/12 06:24:41;;;;;;;20.30;12.95;;;;;;;17.25;51.73;100789.56;5104442;28;20031;-54
2021/05/12 06:27:06;;;;;;;20.27;12.23;;;;;;;17.25;51.56;100781.44;5112949;28;20096;-61
2021/05/12 06:29:32;;;;;;;17.08;12.10;;;;;;;17.26;51.58;100783.16;5110967;28;20038;-55
2021/05/12 06:31:57;;;;;;;20.38;13.02;;;;;;;17.30;51.44;100783.72;5112639;28;20455;-52
2021/05/12 06:34:22;;;;;;;26.65;12.85;;;;;;;17.36;51.49;100783.13;5112198;28;20549;-56
2021/05/12 06:36:48;;;;;;;25.02;15.18;;;;;;;17.41;51.37;100782.72;5111935;28;20031;-58
2021/05/12 06:39:14;;;;;;;26.55;15.10;;;;;;;17.46;51.25;100773.13;5112250;28;20416;-51
2021/05/12 06:41:39;;;;;;;21.58;14.15;;;;;;;17.49;51.01;100769.28;5112371;28;20469;-59
2021/05/12 06:44:06;;;;;;;24.00;13.55;;;;;;;17.56;51.06;100778.53;5110810;27;20038;-52
2021/05/12 06:46:31;;;;;;;23.98;14.18;;;;;;;17.62;51.36;100786.09;5111971;28;20411;-57
2021/05/12 06:48:57;;;;;;;20.33;13.40;;;;;;;17.68;50.97;100771.09;5111814;28;20043;-54
2021/05/12 06:51:23;;;;;;;27.77;14.38;;;;;;;17.76;51.11;100778.47;5112442;28;20038;-53
2021/05/12 06:53:48;;;;;;;21.20;14.10;;;;;;;17.86;50.72;100771.19;5113104;28;20404;-52
2021/05/12 06:56:14;;;;;;;24.63;16.45;;;;;;;17.92;50.66;100762.47;5112376;28;20077;-58
2021/05/12 06:58:41;;;;;;;21.75;16.30;;;;;;;17.96;50.41;100778.41;5112043;28;20043;-57
2021/05/12 07:01:09;;;;;;;29.77;16.50;;;;;;;17.91;50.77;100771.59;5111956;28;20038;-57
2021/05/12 07:03:34;;;;;;;29.33;16.95;;;;;;;17.96;50.63;100765.72;5112674;28;20449;-58
2021/05/12 07:06:01;;;;;;;30.33;18.25;;;;;;;17.87;50.70;100748.53;5112259;28;20032;-57
2021/05/12 07:08:27;;;;;;;29.80;17.13;;;;;;;17.83;50.86;100740.84;5111846;28;20044;-59
2021/05/12 07:10:52;;;;;;;26.35;17.17;;;;;;;17.90;50.99;100737.38;5111875;28;20071;-59
2021/05/12 07:13:18;;;;;;;26.00;17.88;;;;;;;17.88;50.64;100723.13;5112215;28;20036;-57
2021/05/12 07:15:43;;;;;;;30.08;18.80;;;;;;;17.94;50.60;100725.25;5093415;27;20028;-57
2021/05/12 07:18:09;;;;;;;30.20;18.40;;;;;;;18.05;50.51;100712.50;5091279;28;20071;-59
2021/05/12 07:20:35;;;;;;;34.42;18.65;;;;;;;18.05;50.26;100685.41;5090911;28;20123;-55
2021/05/12 07:23:06;;;;;;;32.33;18.38;;;;;;;18.29;50.38;100705.66;5091790;28;20072;-54
2021/05/12 07:25:32;;;;;;;36.65;18.45;;;;;;;18.34;49.64;100697.94;5091111;28;20137;-60
2021/05/12 07:27:58;;;;;;;29.17;18.98;;;;;;;18.48;49.24;100691.97;5091089;28;20036;-59
2021/05/12 07:30:24;;;;;;;33.58;18.67;;;;;;;18.68;48.90;100696.38;5090966;28;20507;-56
2021/05/12 07:32:50;;;;;;;26.95;17.58;;;;;;;18.61;48.29;100650.06;5089998;28;20051;-58
2021/05/12 07:35:16;;;;;;;27.98;18.92;;;;;;;18.89;48.04;100690.66;5091346;28;20573;-56
2021/05/12 07:37:42;;;;;;;34.78;18.77;;;;;;;18.87;47.94;100673.69;5101963;28;20052;-54
2021/05/12 07:40:08;;;;;;;31.35;17.95;;;;;;;18.98;48.11;100678.88;5090812;28;20492;-56
2021/05/12 07:42:35;;;;;;;32.97;17.85;;;;;;;18.99;47.70;100675.13;5091224;28;20075;-55
2021/05/12 07:45:01;;;;;;;28.60;17.88;;;;;;;19.08;47.44;100671.50;5091124;28;20477;-57
2021/05/12 07:47:27;;;;;;;29.08;18.17;;;;;;;19.19;47.36;100672.22;5090910;28;20558;-60
2021/05/12 07:49:52;;;;;;;28.20;18.13;;;;;;;19.31;46.83;100665.53;5090024;28;20036;-60
2021/05/12 07:52:18;;;;;;;29.75;18.63;;;;;;;19.45;46.57;100666.78;5091071;28;20036;-60
2021/05/12 07:54:44;;;;;;;32.40;18.13;;;;;;;19.60;46.13;100652.59;5091058;28;20512;-63
2021/05/12 07:57:11;;;;;;;27.92;17.95;;;;;;;20.09;44.87;100651.97;5090801;28;20028;-56
2021/05/12 07:59:38;;;;;;;36.03;18.58;;;;;;;20.21;44.04;100617.16;5090379;28;20036;-57
2021/05/12 08:02:04;;;;;;;33.20;17.88;;;;;;;20.62;43.72;100641.66;5090497;28;20123;-56
2021/05/12 08:04:31;;;;;;;30.08;17.95;;;;;;;20.99;42.76;100642.19;5086143;28;20033;-64
2021/05/12 08:06:57;;;;;;;27.77;17.15;;;;;;;21.26;42.28;100633.75;5091437;28;20081;-60
2021/05/12 08:09:23;;;;;;;30.40;17.77;;;;;;;21.52;41.26;100628.91;5103651;28;20134;-61
2021/05/12 08:11:49;;;;;;;25.13;16.95;;;;;;;21.22;40.82;100532.53;5101756;28;20135;-59
2021/05/12 08:14:15;;;;;;;27.25;17.60;;;;;;;22.14;39.75;100610.03;5103118;28;20119;-62
2021/05/12 08:16:40;;;;;;;33.22;16.45;;;;;;;22.64;39.27;100613.28;5099542;28;20023;-58
2021/05/12 08:19:06;;;;;;;28.00;17.52;;;;;;;22.99;38.59;100607.31;5096309;28;20032;-54
2021/05/12 08:21:34;;;;;;;33.78;19.58;;;;;;;23.31;37.49;100615.38;5106601;28;20121;-56
2021/05/12 08:24:00;;;;;;;30.15;18.25;;;;;;;23.69;36.86;100614.38;5094293;28;20040;-58
2021/05/12 08:26:26;;;;;;;24.45;17.45;;;;;;;23.91;36.38;100574.25;5101751;28;20047;-61
2021/05/12 08:28:51;;;;;;;32.55;18.35;;;;;;;24.71;35.24;100607.03;5100218;28;20156;-61
2021/05/12 08:31:18;;;;;;;27.40;17.80;;;;;;;25.06;34.30;100598.84;5094175;28;20127;-62
2021/05/12 08:33:44;;;;;;;27.40;17.20;;;;;;;24.80;34.42;100570.25;5106132;28;20065;-63
2021/05/12 08:36:10;;;;;;;27.90;18.65;;;;;;;24.82;34.46;100604.81;5095587;28;20039;-60
2021/05/12 08:38:37;;;;;;;27.05;18.25;;;;;;;24.62;34.83;100600.00;5100079;28;20421;-63
2021/05/12 08:41:04;;;;;;;31.98;18.90;;;;;;;24.43;35.06;100621.53;5102898;28;20531;-61
2021/05/12 08:43:31;;;;;;;29.92;18.83;;;;;;;24.14;35.14;100609.66;5092556;28;20036;-60
2021/05/12 08:45:57;;;;;;;32.15;20.60;;;;;;;23.87;35.65;100600.28;5105586;28;20036;-61
2021/05/12 08:48:24;;;;;;;26.02;18.63;;;;;;;23.23;36.90;100587.06;5097547;28;20484;-60
2021/05/12 08:50:52;;;;;;;28.95;18.80;;;;;;;22.75;37.81;100592.88;5098737;28;20169;-62
2021/05/12 08:53:18;;;;;;;25.25;18.40;;;;;;;22.65;38.35;100597.72;5104568;28;20028;-60
2021/05/12 08:55:45;;;;;;;28.45;17.95;;;;;;;22.72;38.16;100582.31;5090225;28;20855;-62
2021/05/12 08:58:10;;;;;;;26.95;18.92;;;;;;;23.14;37.53;100574.53;5093649;28;20035;-61
2021/05/12 09:00:36;;;;;;;25.67;17.85;;;;;;;23.71;36.65;100568.56;5098295;28;20036;-60
2021/05/12 09:03:02;;;;;;;28.02;17.45;;;;;;;24.49;35.39;100570.63;5099913;28;20400;-61
2021/05/12 09:05:28;;;;;;;29.65;16.95;;;;;;;25.14;34.47;100564.97;5098893;28;20044;-61
2021/05/12 09:07:55;;;;;;;23.10;17.30;;;;;;;25.67;33.01;100547.09;5092634;28;20397;-61
2021/05/12 09:10:21;;;;;;;22.67;17.40;;;;;;;25.99;32.34;100549.28;5100389;28;20396;-61
2021/05/12 09:12:56;;;;;;;29.52;17.70;;;;;;;26.04;31.89;100530.28;5098699;28;20031;-60
2021/05/12 09:15:24;;;;;;;24.10;17.13;;;;;;;26.15;31.82;100535.19;5099358;28;20541;-61
2021/05/12 09:17:51;;;;;;;21.25;16.45;;;;;;;26.21;31.97;100528.88;5096767;28;20040;-61
2021/05/12 09:20:20;;;;;;;19.70;16.23;;;;;;;26.34;31.84;100516.22;5106940;28;20042;-61
2021/05/12 09:23:01;;;;;;;20.35;16.70;;;;;;;26.23;31.63;100510.28;5104210;28;20066;-60
2021/05/12 09:25:32;;;;;;;20.08;15.30;;;;;;;26.26;32.01;100513.66;5108701;28;20039;-70
2021/05/12 09:28:14;;;;;;;21.08;15.43;;;;;;;26.46;31.69;100508.19;5092591;28;20043;-62
2021/05/12 09:30:42;;;;;;;22.45;15.57;;;;;;;26.43;31.58;100509.44;5092594;28;20076;-62
2021/05/12 09:33:09;;;;;;;19.05;15.00;;;;;;;26.48;31.73;100495.09;5092601;28;20028;-60
2021/05/12 09:35:42;;;;;;;20.80;14.80;;;;;;;26.73;31.40;100481.50;5093224;28;20047;-63
2021/05/12 09:38:21;;;;;;;21.65;15.77;;;;;;;27.06;30.36;100469.59;5098469;28;20060;-62
2021/05/12 09:41:06;;;;;;;21.42;15.25;;;;;;;27.22;30.02;100451.78;5101832;28;20043;-62
2021/05/12 09:43:33;;;;;;;18.73;15.43;;;;;;;27.31;30.25;100435.88;5109654;28;20039;-62
2021/05/12 09:46:15;;;;;;;26.83;16.17;;;;;;;27.49;30.45;100451.63;5097426;28;20085;-61
2021/05/12 09:49:08;;;;;;;31.25;16.00;;;;;;;27.43;30.05;100444.25;5102352;28;20040;-60
2021/05/12 09:51:39;;;;;;;20.70;15.60;;;;;;;27.24;30.01;100429.53;5108278;28;20044;-66
2021/05/12 09:54:14;;;;;;;24.98;16.08;;;;;;;26.78;30.78;100373.75;5097801;28;20489;-56
2021/05/12 09:56:49;;;;;;;22.90;15.88;;;;;;;27.14;30.68;100420.94;5102782;28;20085;-50
2021/05/12 09:59:21;;;;;;;23.20;15.90;;;;;;;27.18;30.96;100411.19;5107970;28;20050;-57
2021/05/12 10:01:51;;;;;;;22.13;15.23;;;;;;;27.25;30.93;100400.16;5094869;28;20616;-51
2021/05/12 10:04:24;;;;;;;23.38;15.63;;;;;;;27.29;30.37;100391.28;5108819;28;20576;-58
2021/05/12 10:06:53;;;;;;;25.80;15.80;;;;;;;27.06;30.79;100380.81;5097992;28;20036;-56
2021/05/12 10:09:23;;;;;;;21.63;14.55;;;;;;;27.03;31.30;100387.63;5107608;28;20045;-53
2021/05/12 10:12:02;;;;;;;18.55;14.88;;;;;;;27.13;31.03;100380.78;5094466;27;20027;-54
2021/05/12 10:14:27;;;;;;;20.77;15.52;;;;;;;27.08;31.42;100374.06;5104829;28;20042;-58
2021/05/12 10:16:53;;;;;;;22.48;15.50;;;;;;;27.06;31.24;100361.59;5104717;28;20028;-53
2021/05/12 10:19:19;;;;;;;21.40;14.40;;;;;;;27.18;31.35;100373.56;5096469;28;20407;-52
2021/05/12 10:21:47;;;;;;;20.10;15.60;;;;;;;27.20;31.15;100362.34;5108928;28;20490;-53
2021/05/12 10:24:13;;;;;;;22.13;14.73;;;;;;;27.16;31.02;100356.47;5098637;28;20446;-55
2021/05/12 10:26:48;;;;;;;22.20;14.63;;;;;;;27.11;31.53;100339.78;5102091;28;20028;-52
2021/05/12 10:29:15;;;;;;;;;;;;;;;27.61;30.83;100338.16;5107186;28;20036;-50
2021/05/12 10:31:41;;;;;;;22.67;14.40;;;;;;;27.27;30.56;100338.41;5095412;28;19920;-53
2021/05/12 10:34:07;;;;;;;20.80;15.43;;;;;;;26.71;31.08;100327.06;5106816;28;20035;-52
2021/05/12 10:36:33;;;;;;;17.30;12.57;;;;;;;26.34;32.45;100313.09;5101279;28;20043;-60
2021/05/12 10:39:04;;;;;;;18.13;14.50;;;;;;;26.23;32.99;100307.19;5099269;28;20036;-60
2021/05/12 10:41:35;;;;;;;19.95;15.30;;;;;;;26.39;31.75;100302.28;5108933;28;20064;-53
2021/05/12 10:44:07;;;;;;;18.17;14.77;;;;;;;26.47;32.24;100299.28;5096957;28;20180;-48
2021/05/12 10:46:45;;;;;;;19.05;13.60;;;;;;;26.60;32.16;100284.66;5102951;28;20032;-54
2021/05/12 10:49:10;;;;;;;21.70;11.95;;;;;;;26.67;31.74;100284.63;5105297;28;20202;-50
2021/05/12 10:51:47;;;;;;;20.23;13.48;;;;;;;26.83;31.42;100274.22;5093648;28;20451;-53
2021/05/12 10:54:12;;;;;;;16.75;13.50;;;;;;;27.00;30.70;100272.63;5107441;28;20062;-49
2021/05/12 10:56:41;;;;;;;19.40;12.75;;;;;;;27.01;30.87;100270.72;5091198;28;20060;-53
2021/05/12 10:59:10;;;;;;;16.17;13.38;;;;;;;27.05;30.42;100248.09;5091458;28;20036;-53
2021/05/12 11:01:42;;;;;;;19.33;13.27;;;;;;;27.31;30.62;100257.19;5091911;28;20081;-57
2021/05/12 11:04:12;;;;;;;17.75;13.35;;;;;;;27.51;29.87;100234.19;5091600;28;20032;-58
2021/05/12 11:06:37;;;;;;;20.52;13.27;;;;;;;27.69;29.72;100240.78;5101472;28;20031;-57
2021/05/12 11:09:17;;;;;;;16.33;14.02;;;;;;;27.79;29.36;100230.09;5097931;28;20104;-55
2021/05/12 11:11:45;;;;;;;17.40;12.50;;;;;;;27.57;29.56;100224.19;5108167;28;20043;-57